sensor_id;sensor_type;location;lat;lon;timestamp;temperature;humidity
12833;DHT22;6483;51.310;4.462;2023-03-01T00:01:33;-1.60;99.90
12833;DHT22;6483;51.310;4.462;2023-03-01T00:03:59;-2.20;99.90
12833;DHT22;6483;51.310;4.462;2023-03-01T00:06:26;-1.90;99.90
12833;DHT22;6483;51.310;4.462;2023-03-01T00:08:58;-1.70;99.90
12833;DHT22;6483;51.310;4.462;2023-03-01T00:11:27;-2.10;99.90
12833;DHT22;6483;51.310;4.462;2023-03-01T00:13:55;-1.60;99.90
12833;DHT22;6483;51.310;4.462;2023-03-01T00:16:29;-1.90;99.90
12833;DHT22;6483;51.310;4.462;2023-03-01T00:18:56;-2.20;99.90
12833;DHT22;6483;51.310;4.462;2023-03-01T00:21:22;-0.80;99.90
12833;DHT22;6483;51.310;4.462;2023-03-01T00:23:49;-0.20;99.90
12833;DHT22;6483;51.310;4.462;2023-03-01T00:26:17;-2.30;99.90
12833;DHT22;6483;51.310;4.462;2023-03-01T00:28:46;-2.00;99.90
12833;DHT22;6483;51.310;4.462;2023-03-01T00:31:15;-2.30;99.90
12833;DHT22;6483;51.310;4.462;2023-03-01T00:33:44;-2.40;99.90
12833;DHT22;6483;51.310;4.462;2023-03-01T00:36:17;-2.40;99.90
12833;DHT22;6483;51.310;4.462;2023-03-01T00:38:45;-2.40;99.90
12833;DHT22;6483;51.310;4.462;2023-03-01T00:41:14;-2.40;99.90
12833;DHT22;6483;51.310;4.462;2023-03-01T00:43:46;-2.30;99.90
12833;DHT22;6483;51.310;4.462;2023-03-01T00:46:15;-1.00;99.90
12833;DHT22;6483;51.310;4.462;2023-03-01T00:48:43;-2.10;99.90
12833;DHT22;6483;51.310;4.462;2023-03-01T00:51:12;-2.40;99.90
12833;DHT22;6483;51.310;4.462;2023-03-01T00:53:38;-0.90;99.90
12833;DHT22;6483;51.310;4.462;2023-03-01T00:56:07;-2.50;99.90
12833;DHT22;6483;51.310;4.462;2023-03-01T00:58:39;-2.40;99.90
12833;DHT22;6483;51.310;4.462;2023-03-01T01:01:13;-2.40;99.90
12833;DHT22;6483;51.310;4.462;2023-03-01T01:03:52;-2.40;99.90
12833;DHT22;6483;51.310;4.462;2023-03-01T01:06:46;-2.50;99.90
12833;DHT22;6483;51.310;4.462;2023-03-01T01:09:14;-2.40;99.90
12833;DHT22;6483;51.310;4.462;2023-03-01T01:11:48;-2.40;99.90
12833;DHT22;6483;51.310;4.462;2023-03-01T01:14:18;-2.20;99.90
12833;DHT22;6483;51.310;4.462;2023-03-01T01:16:44;-2.40;99.90
12833;DHT22;6483;51.310;4.462;2023-03-01T01:19:16;-2.40;99.90
12833;DHT22;6483;51.310;4.462;2023-03-01T01:21:43;-2.40;99.90
12833;DHT22;6483;51.310;4.462;2023-03-01T01:24:09;-1.90;99.90
12833;DHT22;6483;51.310;4.462;2023-03-01T01:26:35;-1.20;99.90
12833;DHT22;6483;51.310;4.462;2023-03-01T01:29:02;-1.20;99.90
12833;DHT22;6483;51.310;4.462;2023-03-01T01:31:29;-1.60;99.90
12833;DHT22;6483;51.310;4.462;2023-03-01T01:33:56;-2.30;99.90
12833;DHT22;6483;51.310;4.462;2023-03-01T01:36:22;-2.40;99.90
12833;DHT22;6483;51.310;4.462;2023-03-01T01:38:52;-2.60;99.90
12833;DHT22;6483;51.310;4.462;2023-03-01T01:41:22;-2.50;99.90
12833;DHT22;6483;51.310;4.462;2023-03-01T01:44:08;-2.50;99.90
12833;DHT22;6483;51.310;4.462;2023-03-01T01:46:41;-1.80;99.90
12833;DHT22;6483;51.310;4.462;2023-03-01T01:49:25;-2.60;99.90
12833;DHT22;6483;51.310;4.462;2023-03-01T01:52:01;-2.70;99.90
12833;DHT22;6483;51.310;4.462;2023-03-01T01:54:44;-2.60;99.90
12833;DHT22;6483;51.310;4.462;2023-03-01T01:57:19;-2.70;99.90
12833;DHT22;6483;51.310;4.462;2023-03-01T01:59:49;-2.80;99.90
12833;DHT22;6483;51.310;4.462;2023-03-01T02:02:22;-0.40;99.90
12833;DHT22;6483;51.310;4.462;2023-03-01T02:04:52;-2.70;99.90
12833;DHT22;6483;51.310;4.462;2023-03-01T02:07:22;-0.20;99.90
12833;DHT22;6483;51.310;4.462;2023-03-01T02:09:50;-2.80;99.90
12833;DHT22;6483;51.310;4.462;2023-03-01T02:12:21;-2.80;99.90
12833;DHT22;6483;51.310;4.462;2023-03-01T02:14:48;-2.80;99.90
12833;DHT22;6483;51.310;4.462;2023-03-01T02:17:16;-2.70;99.90
12833;DHT22;6483;51.310;4.462;2023-03-01T02:19:58;-2.40;99.90
12833;DHT22;6483;51.310;4.462;2023-03-01T02:22:31;-2.90;99.90
12833;DHT22;6483;51.310;4.462;2023-03-01T02:25:30;-3.00;99.90
12833;DHT22;6483;51.310;4.462;2023-03-01T02:30:56;-3.00;99.90
12833;DHT22;6483;51.310;4.462;2023-03-01T02:33:41;-3.00;99.90
12833;DHT22;6483;51.310;4.462;2023-03-01T02:36:12;-2.70;99.90
12833;DHT22;6483;51.310;4.462;2023-03-01T02:38:47;-3.90;99.90
12833;DHT22;6483;51.310;4.462;2023-03-01T02:41:16;-3.00;99.90
12833;DHT22;6483;51.310;4.462;2023-03-01T02:43:44;-3.10;99.90
12833;DHT22;6483;51.310;4.462;2023-03-01T02:46:22;-3.20;99.90
12833;DHT22;6483;51.310;4.462;2023-03-01T02:48:49;-3.20;99.90
12833;DHT22;6483;51.310;4.462;2023-03-01T02:51:27;-2.50;99.90
12833;DHT22;6483;51.310;4.462;2023-03-01T02:54:17;-3.10;99.90
12833;DHT22;6483;51.310;4.462;2023-03-01T02:56:49;-0.70;99.90
12833;DHT22;6483;51.310;4.462;2023-03-01T02:59:19;-3.10;99.90
12833;DHT22;6483;51.310;4.462;2023-03-01T03:01:46;-2.90;99.90
12833;DHT22;6483;51.310;4.462;2023-03-01T03:04:20;-1.70;99.90
12833;DHT22;6483;51.310;4.462;2023-03-01T03:06:48;-3.20;99.90
12833;DHT22;6483;51.310;4.462;2023-03-01T03:09:15;-3.10;99.90
12833;DHT22;6483;51.310;4.462;2023-03-01T03:11:41;-2.50;99.90
12833;DHT22;6483;51.310;4.462;2023-03-01T03:14:12;-3.10;99.90
12833;DHT22;6483;51.310;4.462;2023-03-01T03:16:43;-2.70;99.90
12833;DHT22;6483;51.310;4.462;2023-03-01T03:19:09;-3.20;99.90
12833;DHT22;6483;51.310;4.462;2023-03-01T03:21:38;-1.70;99.90
12833;DHT22;6483;51.310;4.462;2023-03-01T03:24:04;-3.30;99.90
12833;DHT22;6483;51.310;4.462;2023-03-01T03:26:31;-2.20;99.90
12833;DHT22;6483;51.310;4.462;2023-03-01T03:28:58;-2.40;99.90
12833;DHT22;6483;51.310;4.462;2023-03-01T03:31:24;-3.30;99.90
12833;DHT22;6483;51.310;4.462;2023-03-01T03:33:50;-3.20;99.90
12833;DHT22;6483;51.310;4.462;2023-03-01T03:36:17;-1.80;99.90
12833;DHT22;6483;51.310;4.462;2023-03-01T03:38:44;-0.70;99.90
12833;DHT22;6483;51.310;4.462;2023-03-01T03:41:12;-1.90;99.90
12833;DHT22;6483;51.310;4.462;2023-03-01T03:43:39;-3.30;99.90
12833;DHT22;6483;51.310;4.462;2023-03-01T03:46:06;-3.10;99.90
12833;DHT22;6483;51.310;4.462;2023-03-01T03:48:41;-1.60;99.90
12833;DHT22;6483;51.310;4.462;2023-03-01T03:51:12;-3.10;99.90
12833;DHT22;6483;51.310;4.462;2023-03-01T03:53:46;-3.10;99.90
12833;DHT22;6483;51.310;4.462;2023-03-01T03:56:11;-1.50;99.90
12833;DHT22;6483;51.310;4.462;2023-03-01T03:58:39;-0.70;99.90
12833;DHT22;6483;51.310;4.462;2023-03-01T04:01:04;-1.40;99.90
12833;DHT22;6483;51.310;4.462;2023-03-01T04:03:31;-3.10;99.90
12833;DHT22;6483;51.310;4.462;2023-03-01T04:05:59;-3.10;99.90
12833;DHT22;6483;51.310;4.462;2023-03-01T04:08:27;-0.80;99.90
12833;DHT22;6483;51.310;4.462;2023-03-01T04:10:58;-3.10;99.90
12833;DHT22;6483;51.310;4.462;2023-03-01T04:13:25;-3.10;99.90
12833;DHT22;6483;51.310;4.462;2023-03-01T04:15:55;-1.50;99.90
12833;DHT22;6483;51.310;4.462;2023-03-01T04:18:22;-2.50;99.90
12833;DHT22;6483;51.310;4.462;2023-03-01T04:20:49;-2.20;99.90
12833;DHT22;6483;51.310;4.462;2023-03-01T04:23:17;-2.70;99.90
12833;DHT22;6483;51.310;4.462;2023-03-01T04:26:04;-3.10;99.90
12833;DHT22;6483;51.310;4.462;2023-03-01T04:28:38;-3.10;99.90
12833;DHT22;6483;51.310;4.462;2023-03-01T04:31:32;-3.20;99.90
12833;DHT22;6483;51.310;4.462;2023-03-01T04:33:57;-3.20;99.90
12833;DHT22;6483;51.310;4.462;2023-03-01T04:36:27;-3.20;99.90
12833;DHT22;6483;51.310;4.462;2023-03-01T04:38:53;-2.90;99.90
12833;DHT22;6483;51.310;4.462;2023-03-01T04:41:22;-0.50;99.90
12833;DHT22;6483;51.310;4.462;2023-03-01T04:43:48;-3.30;99.90
12833;DHT22;6483;51.310;4.462;2023-03-01T04:46:17;-2.20;99.90
12833;DHT22;6483;51.310;4.462;2023-03-01T04:48:45;-2.90;99.90
12833;DHT22;6483;51.310;4.462;2023-03-01T04:51:12;-1.70;99.90
12833;DHT22;6483;51.310;4.462;2023-03-01T04:53:39;-2.20;99.90
12833;DHT22;6483;51.310;4.462;2023-03-01T04:56:05;-3.30;99.90
12833;DHT22;6483;51.310;4.462;2023-03-01T04:59:14;-3.30;99.90
12833;DHT22;6483;51.310;4.462;2023-03-01T05:01:21;-3.40;99.90
12833;DHT22;6483;51.310;4.462;2023-03-01T05:03:50;-3.40;99.90
12833;DHT22;6483;51.310;4.462;2023-03-01T05:06:17;-3.40;99.90
12833;DHT22;6483;51.310;4.462;2023-03-01T05:08:47;-1.50;99.90
12833;DHT22;6483;51.310;4.462;2023-03-01T05:11:13;-1.30;99.90
12833;DHT22;6483;51.310;4.462;2023-03-01T05:13:42;-3.20;99.90
12833;DHT22;6483;51.310;4.462;2023-03-01T05:16:08;-1.80;99.90
12833;DHT22;6483;51.310;4.462;2023-03-01T05:18:37;-3.50;99.90
12833;DHT22;6483;51.310;4.462;2023-03-01T05:21:05;-1.20;99.90
12833;DHT22;6483;51.310;4.462;2023-03-01T05:23:33;-3.60;99.90
12833;DHT22;6483;51.310;4.462;2023-03-01T05:26:01;-2.60;99.90
12833;DHT22;6483;51.310;4.462;2023-03-01T05:28:29;-3.60;99.90
12833;DHT22;6483;51.310;4.462;2023-03-01T05:30:56;-3.60;99.90
12833;DHT22;6483;51.310;4.462;2023-03-01T05:33:22;-3.70;99.90
12833;DHT22;6483;51.310;4.462;2023-03-01T05:35:50;-2.10;99.90
12833;DHT22;6483;51.310;4.462;2023-03-01T05:38:20;-1.30;99.90
12833;DHT22;6483;51.310;4.462;2023-03-01T05:40:47;-3.40;99.90
12833;DHT22;6483;51.310;4.462;2023-03-01T05:43:15;-3.80;99.90
12833;DHT22;6483;51.310;4.462;2023-03-01T05:45:42;-3.60;99.90
12833;DHT22;6483;51.310;4.462;2023-03-01T05:48:09;-3.80;99.90
12833;DHT22;6483;51.310;4.462;2023-03-01T05:50:44;-3.90;99.90
12833;DHT22;6483;51.310;4.462;2023-03-01T05:53:16;-2.30;99.90
12833;DHT22;6483;51.310;4.462;2023-03-01T05:55:46;-3.60;99.90
12833;DHT22;6483;51.310;4.462;2023-03-01T05:58:19;-3.60;99.90
12833;DHT22;6483;51.310;4.462;2023-03-01T06:00:52;-1.30;99.90
12833;DHT22;6483;51.310;4.462;2023-03-01T06:03:18;-3.80;99.90
12833;DHT22;6483;51.310;4.462;2023-03-01T06:05:44;-3.80;99.90
12833;DHT22;6483;51.310;4.462;2023-03-01T06:08:11;-3.00;99.90
12833;DHT22;6483;51.310;4.462;2023-03-01T06:10:40;-4.00;99.90
12833;DHT22;6483;51.310;4.462;2023-03-01T06:13:06;-4.00;99.90
12833;DHT22;6483;51.310;4.462;2023-03-01T06:15:34;-3.20;99.90
12833;DHT22;6483;51.310;4.462;2023-03-01T06:18:00;-4.10;99.90
12833;DHT22;6483;51.310;4.462;2023-03-01T06:20:28;-3.50;99.90
12833;DHT22;6483;51.310;4.462;2023-03-01T06:22:57;-2.90;99.90
12833;DHT22;6483;51.310;4.462;2023-03-01T06:25:24;-4.20;99.90
12833;DHT22;6483;51.310;4.462;2023-03-01T06:27:50;-4.20;99.90
12833;DHT22;6483;51.310;4.462;2023-03-01T06:30:19;-4.20;99.90
12833;DHT22;6483;51.310;4.462;2023-03-01T06:32:45;-4.20;99.90
12833;DHT22;6483;51.310;4.462;2023-03-01T06:35:13;-4.30;99.90
12833;DHT22;6483;51.310;4.462;2023-03-01T06:37:41;-4.20;99.90
12833;DHT22;6483;51.310;4.462;2023-03-01T06:40:09;-2.30;99.90
12833;DHT22;6483;51.310;4.462;2023-03-01T06:42:41;-4.20;99.90
12833;DHT22;6483;51.310;4.462;2023-03-01T06:45:08;-4.10;99.90
12833;DHT22;6483;51.310;4.462;2023-03-01T06:47:37;-4.10;99.90
12833;DHT22;6483;51.310;4.462;2023-03-01T06:50:03;-4.10;99.90
12833;DHT22;6483;51.310;4.462;2023-03-01T06:52:30;-4.10;99.90
12833;DHT22;6483;51.310;4.462;2023-03-01T06:54:55;-4.00;99.90
12833;DHT22;6483;51.310;4.462;2023-03-01T06:57:22;-4.00;99.90
12833;DHT22;6483;51.310;4.462;2023-03-01T06:59:50;-4.00;99.90
12833;DHT22;6483;51.310;4.462;2023-03-01T07:02:19;-3.90;99.90
12833;DHT22;6483;51.310;4.462;2023-03-01T07:04:45;-3.90;99.90
12833;DHT22;6483;51.310;4.462;2023-03-01T07:07:14;-3.90;99.90
12833;DHT22;6483;51.310;4.462;2023-03-01T07:09:39;-3.80;99.90
12833;DHT22;6483;51.310;4.462;2023-03-01T07:12:08;-3.20;99.90
12833;DHT22;6483;51.310;4.462;2023-03-01T07:14:34;-3.70;99.90
12833;DHT22;6483;51.310;4.462;2023-03-01T07:17:00;-3.00;99.90
12833;DHT22;6483;51.310;4.462;2023-03-01T07:19:26;-3.50;99.90
12833;DHT22;6483;51.310;4.462;2023-03-01T07:21:51;-2.70;99.90
12833;DHT22;6483;51.310;4.462;2023-03-01T07:24:17;-3.20;99.90
12833;DHT22;6483;51.310;4.462;2023-03-01T07:26:43;-3.00;99.90
12833;DHT22;6483;51.310;4.462;2023-03-01T07:29:10;-1.40;99.90
12833;DHT22;6483;51.310;4.462;2023-03-01T07:31:38;-3.00;99.90
12833;DHT22;6483;51.310;4.462;2023-03-01T07:34:07;-3.00;99.90
12833;DHT22;6483;51.310;4.462;2023-03-01T07:36:33;-2.50;99.90
12833;DHT22;6483;51.310;4.462;2023-03-01T07:38:59;-2.60;99.90
12833;DHT22;6483;51.310;4.462;2023-03-01T07:41:33;-2.00;99.90
12833;DHT22;6483;51.310;4.462;2023-03-01T07:43:59;-2.50;99.90
12833;DHT22;6483;51.310;4.462;2023-03-01T07:46:25;-1.10;99.90
12833;DHT22;6483;51.310;4.462;2023-03-01T07:48:50;-2.20;99.90
12833;DHT22;6483;51.310;4.462;2023-03-01T07:51:16;0.10;99.90
12833;DHT22;6483;51.310;4.462;2023-03-01T07:53:42;-1.90;99.90
12833;DHT22;6483;51.310;4.462;2023-03-01T07:56:12;-1.80;99.90
12833;DHT22;6483;51.310;4.462;2023-03-01T07:58:40;-1.70;99.90
12833;DHT22;6483;51.310;4.462;2023-03-01T08:01:08;-1.50;99.90
12833;DHT22;6483;51.310;4.462;2023-03-01T08:03:35;-1.40;99.90
12833;DHT22;6483;51.310;4.462;2023-03-01T08:06:06;-0.10;99.90
12833;DHT22;6483;51.310;4.462;2023-03-01T08:08:35;-1.20;99.90
12833;DHT22;6483;51.310;4.462;2023-03-01T08:11:03;-1.10;99.90
12833;DHT22;6483;51.310;4.462;2023-03-01T08:13:30;-1.00;99.90
12833;DHT22;6483;51.310;4.462;2023-03-01T08:16:08;0.90;99.90
12833;DHT22;6483;51.310;4.462;2023-03-01T08:18:35;-0.70;99.90
12833;DHT22;6483;51.310;4.462;2023-03-01T08:21:23;0.40;99.90
12833;DHT22;6483;51.310;4.462;2023-03-01T08:23:49;0.90;99.90
12833;DHT22;6483;51.310;4.462;2023-03-01T08:26:17;-0.30;99.90
12833;DHT22;6483;51.310;4.462;2023-03-01T08:28:44;-0.10;99.90
12833;DHT22;6483;51.310;4.462;2023-03-01T08:31:26;0.00;99.90
12833;DHT22;6483;51.310;4.462;2023-03-01T08:33:56;0.10;99.90
12833;DHT22;6483;51.310;4.462;2023-03-01T08:36:27;0.20;99.90
12833;DHT22;6483;51.310;4.462;2023-03-01T08:38:53;0.40;99.90
12833;DHT22;6483;51.310;4.462;2023-03-01T08:41:22;0.50;99.90
12833;DHT22;6483;51.310;4.462;2023-03-01T08:43:48;0.70;99.90
12833;DHT22;6483;51.310;4.462;2023-03-01T08:46:20;1.00;99.90
12833;DHT22;6483;51.310;4.462;2023-03-01T08:48:46;1.00;99.90
12833;DHT22;6483;51.310;4.462;2023-03-01T08:51:18;1.30;99.90
12833;DHT22;6483;51.310;4.462;2023-03-01T08:53:48;1.30;99.90
12833;DHT22;6483;51.310;4.462;2023-03-01T08:56:14;1.50;99.90
12833;DHT22;6483;51.310;4.462;2023-03-01T08:58:47;1.60;99.90
12833;DHT22;6483;51.310;4.462;2023-03-01T09:01:21;1.80;99.90
12833;DHT22;6483;51.310;4.462;2023-03-01T09:03:49;2.30;99.90
12833;DHT22;6483;51.310;4.462;2023-03-01T09:06:15;3.50;99.90
12833;DHT22;6483;51.310;4.462;2023-03-01T09:08:43;5.00;96.70
12833;DHT22;6483;51.310;4.462;2023-03-01T09:11:16;6.50;46.10
12833;DHT22;6483;51.310;4.462;2023-03-01T09:13:43;7.90;27.70
12833;DHT22;6483;51.310;4.462;2023-03-01T09:16:15;9.00;12.30
12833;DHT22;6483;51.310;4.462;2023-03-01T09:18:43;9.60;1.10
12833;DHT22;6483;51.310;4.462;2023-03-01T09:21:14;10.00;1.00
12833;DHT22;6483;51.310;4.462;2023-03-01T09:23:45;10.10;1.00
12833;DHT22;6483;51.310;4.462;2023-03-01T09:26:19;10.40;1.00
12833;DHT22;6483;51.310;4.462;2023-03-01T09:28:47;10.80;1.00
12833;DHT22;6483;51.310;4.462;2023-03-01T09:31:14;11.40;1.00
12833;DHT22;6483;51.310;4.462;2023-03-01T09:33:41;12.00;1.00
12833;DHT22;6483;51.310;4.462;2023-03-01T09:36:11;11.80;1.00
12833;DHT22;6483;51.310;4.462;2023-03-01T09:38:40;11.00;1.00
12833;DHT22;6483;51.310;4.462;2023-03-01T09:46:43;11.50;1.00
12833;DHT22;6483;51.310;4.462;2023-03-01T09:49:25;12.50;1.00
12833;DHT22;6483;51.310;4.462;2023-03-01T09:54:57;14.10;1.00
12833;DHT22;6483;51.310;4.462;2023-03-01T10:02:38;14.50;1.00
12833;DHT22;6483;51.310;4.462;2023-03-01T10:05:31;14.50;1.00
12833;DHT22;6483;51.310;4.462;2023-03-01T10:08:24;15.50;1.00
12833;DHT22;6483;51.310;4.462;2023-03-01T10:10:52;15.30;1.00
12833;DHT22;6483;51.310;4.462;2023-03-01T10:13:37;14.80;1.00
12833;DHT22;6483;51.310;4.462;2023-03-01T10:16:17;15.40;1.00
12833;DHT22;6483;51.310;4.462;2023-03-01T10:18:53;16.00;1.00
12833;DHT22;6483;51.310;4.462;2023-03-01T10:21:20;15.20;1.00
12833;DHT22;6483;51.310;4.462;2023-03-01T10:23:50;15.70;1.00
12833;DHT22;6483;51.310;4.462;2023-03-01T10:29:10;17.50;1.00
12833;DHT22;6483;51.310;4.462;2023-03-01T10:31:51;18.10;1.00
12833;DHT22;6483;51.310;4.462;2023-03-01T10:34:20;16.90;1.00
12833;DHT22;6483;51.310;4.462;2023-03-01T10:36:55;17.80;1.00
12833;DHT22;6483;51.310;4.462;2023-03-01T10:39:26;18.10;1.00
12833;DHT22;6483;51.310;4.462;2023-03-01T10:42:31;17.60;1.00
12833;DHT22;6483;51.310;4.462;2023-03-01T10:45:14;17.50;1.00
12833;DHT22;6483;51.310;4.462;2023-03-01T10:47:41;18.30;1.00
12833;DHT22;6483;51.310;4.462;2023-03-01T10:50:31;18.90;1.00
12833;DHT22;6483;51.310;4.462;2023-03-01T10:53:05;19.00;1.00
12833;DHT22;6483;51.310;4.462;2023-03-01T10:55:44;18.80;1.00
12833;DHT22;6483;51.310;4.462;2023-03-01T10:58:18;19.30;1.00
12833;DHT22;6483;51.310;4.462;2023-03-01T11:00:57;18.60;1.00
12833;DHT22;6483;51.310;4.462;2023-03-01T11:03:46;19.20;1.00
12833;DHT22;6483;51.310;4.462;2023-03-01T11:06:28;17.70;1.00
12833;DHT22;6483;51.310;4.462;2023-03-01T11:08:56;18.10;1.00
12833;DHT22;6483;51.310;4.462;2023-03-01T11:11:35;19.10;1.00
12833;DHT22;6483;51.310;4.462;2023-03-01T11:16:42;21.40;1.00
12833;DHT22;6483;51.310;4.462;2023-03-01T11:21:38;21.30;1.00
12833;DHT22;6483;51.310;4.462;2023-03-01T11:24:10;21.30;1.00
12833;DHT22;6483;51.310;4.462;2023-03-01T11:26:42;21.80;1.00
12833;DHT22;6483;51.310;4.462;2023-03-01T11:32:19;21.90;1.00
12833;DHT22;6483;51.310;4.462;2023-03-01T11:35:02;22.90;1.00
12833;DHT22;6483;51.310;4.462;2023-03-01T11:37:44;22.60;1.00
12833;DHT22;6483;51.310;4.462;2023-03-01T11:46:13;26.10;1.00
12833;DHT22;6483;51.310;4.462;2023-03-01T11:57:36;24.40;1.00
12833;DHT22;6483;51.310;4.462;2023-03-01T12:00:14;24.70;1.00
12833;DHT22;6483;51.310;4.462;2023-03-01T12:08:41;25.90;1.00
12833;DHT22;6483;51.310;4.462;2023-03-01T12:14:23;24.80;1.00
12833;DHT22;6483;51.310;4.462;2023-03-01T12:22:57;23.60;1.00
12833;DHT22;6483;51.310;4.462;2023-03-01T12:25:43;24.30;1.00
12833;DHT22;6483;51.310;4.462;2023-03-01T12:28:39;26.00;1.00
12833;DHT22;6483;51.310;4.462;2023-03-01T12:31:36;25.00;1.00
12833;DHT22;6483;51.310;4.462;2023-03-01T12:37:29;24.80;1.00
12833;DHT22;6483;51.310;4.462;2023-03-01T12:40:19;25.90;1.00
12833;DHT22;6483;51.310;4.462;2023-03-01T12:49:22;28.20;1.00
12833;DHT22;6483;51.310;4.462;2023-03-01T12:52:09;28.50;1.00
12833;DHT22;6483;51.310;4.462;2023-03-01T12:54:38;27.70;1.00
12833;DHT22;6483;51.310;4.462;2023-03-01T12:57:42;28.20;1.00
12833;DHT22;6483;51.310;4.462;2023-03-01T13:03:25;28.70;1.00
12833;DHT22;6483;51.310;4.462;2023-03-01T13:06:07;29.50;1.00
12833;DHT22;6483;51.310;4.462;2023-03-01T13:11:22;29.00;1.00
12833;DHT22;6483;51.310;4.462;2023-03-01T13:13:49;27.40;1.00
12833;DHT22;6483;51.310;4.462;2023-03-01T13:16:40;27.10;1.00
12833;DHT22;6483;51.310;4.462;2023-03-01T13:19:11;24.80;1.00
12833;DHT22;6483;51.310;4.462;2023-03-01T13:21:37;24.10;1.00
12833;DHT22;6483;51.310;4.462;2023-03-01T13:29:57;28.00;1.00
12833;DHT22;6483;51.310;4.462;2023-03-01T13:32:34;26.40;1.00
12833;DHT22;6483;51.310;4.462;2023-03-01T13:37:52;26.50;1.00
12833;DHT22;6483;51.310;4.462;2023-03-01T13:42:46;25.00;1.00
12833;DHT22;6483;51.310;4.462;2023-03-01T13:45:37;25.90;1.00
12833;DHT22;6483;51.310;4.462;2023-03-01T13:48:26;27.10;1.00
12833;DHT22;6483;51.310;4.462;2023-03-01T13:50:58;28.60;1.00
12833;DHT22;6483;51.310;4.462;2023-03-01T13:53:30;29.80;1.00
12833;DHT22;6483;51.310;4.462;2023-03-01T13:58:46;30.60;1.00
12833;DHT22;6483;51.310;4.462;2023-03-01T14:01:23;30.50;1.00
12833;DHT22;6483;51.310;4.462;2023-03-01T14:03:49;31.50;1.00
12833;DHT22;6483;51.310;4.462;2023-03-01T14:06:16;31.40;1.00
12833;DHT22;6483;51.310;4.462;2023-03-01T14:08:45;30.90;1.00
12833;DHT22;6483;51.310;4.462;2023-03-01T14:17:58;29.80;1.00
12833;DHT22;6483;51.310;4.462;2023-03-01T14:20:27;30.00;1.00
12833;DHT22;6483;51.310;4.462;2023-03-01T14:23:15;29.40;1.00
12833;DHT22;6483;51.310;4.462;2023-03-01T14:26:02;28.70;1.00
12833;DHT22;6483;51.310;4.462;2023-03-01T14:28:32;29.00;1.00
12833;DHT22;6483;51.310;4.462;2023-03-01T14:31:00;30.00;1.00
12833;DHT22;6483;51.310;4.462;2023-03-01T14:33:30;29.40;1.00
12833;DHT22;6483;51.310;4.462;2023-03-01T14:36:08;29.80;1.00
12833;DHT22;6483;51.310;4.462;2023-03-01T14:38:47;29.20;1.00
12833;DHT22;6483;51.310;4.462;2023-03-01T14:41:21;28.40;1.00
12833;DHT22;6483;51.310;4.462;2023-03-01T14:44:12;27.50;1.00
12833;DHT22;6483;51.310;4.462;2023-03-01T14:46:44;26.20;1.00
12833;DHT22;6483;51.310;4.462;2023-03-01T14:49:16;26.90;1.00
12833;DHT22;6483;51.310;4.462;2023-03-01T14:51:53;27.10;1.00
12833;DHT22;6483;51.310;4.462;2023-03-01T14:54:49;27.60;1.00
12833;DHT22;6483;51.310;4.462;2023-03-01T14:57:25;28.00;1.00
12833;DHT22;6483;51.310;4.462;2023-03-01T14:59:54;27.30;1.00
12833;DHT22;6483;51.310;4.462;2023-03-01T15:02:25;28.00;1.00
12833;DHT22;6483;51.310;4.462;2023-03-01T15:04:56;28.50;1.00
12833;DHT22;6483;51.310;4.462;2023-03-01T15:07:28;27.90;1.00
12833;DHT22;6483;51.310;4.462;2023-03-01T15:09:55;26.80;1.00
12833;DHT22;6483;51.310;4.462;2023-03-01T15:12:40;25.40;1.00
12833;DHT22;6483;51.310;4.462;2023-03-01T15:15:38;25.00;1.00
12833;DHT22;6483;51.310;4.462;2023-03-01T15:18:16;25.50;1.00
12833;DHT22;6483;51.310;4.462;2023-03-01T15:20:49;25.50;1.00
12833;DHT22;6483;51.310;4.462;2023-03-01T15:23:24;25.70;1.00
12833;DHT22;6483;51.310;4.462;2023-03-01T15:25:52;25.90;1.00
12833;DHT22;6483;51.310;4.462;2023-03-01T15:28:37;26.00;1.00
12833;DHT22;6483;51.310;4.462;2023-03-01T15:31:12;26.50;1.00
12833;DHT22;6483;51.310;4.462;2023-03-01T15:33:45;25.40;1.00
12833;DHT22;6483;51.310;4.462;2023-03-01T15:39:04;25.00;1.00
12833;DHT22;6483;51.310;4.462;2023-03-01T15:41:57;24.20;1.00
12833;DHT22;6483;51.310;4.462;2023-03-01T15:44:27;23.10;1.00
12833;DHT22;6483;51.310;4.462;2023-03-01T15:46:56;21.50;1.00
12833;DHT22;6483;51.310;4.462;2023-03-01T15:49:39;20.70;1.00
12833;DHT22;6483;51.310;4.462;2023-03-01T15:52:14;20.00;1.00
12833;DHT22;6483;51.310;4.462;2023-03-01T15:54:44;19.10;1.00
12833;DHT22;6483;51.310;4.462;2023-03-01T15:57:33;18.90;1.00
12833;DHT22;6483;51.310;4.462;2023-03-01T16:00:20;18.50;1.00
12833;DHT22;6483;51.310;4.462;2023-03-01T16:02:47;18.30;1.00
12833;DHT22;6483;51.310;4.462;2023-03-01T16:05:19;18.70;1.00
12833;DHT22;6483;51.310;4.462;2023-03-01T16:07:45;18.60;1.00
12833;DHT22;6483;51.310;4.462;2023-03-01T16:10:11;17.80;1.00
12833;DHT22;6483;51.310;4.462;2023-03-01T16:12:39;16.80;1.00
12833;DHT22;6483;51.310;4.462;2023-03-01T16:15:18;15.40;1.00
12833;DHT22;6483;51.310;4.462;2023-03-01T16:17:48;14.30;1.00
12833;DHT22;6483;51.310;4.462;2023-03-01T16:20:15;13.70;1.00
12833;DHT22;6483;51.310;4.462;2023-03-01T16:22:44;13.50;1.00
12833;DHT22;6483;51.310;4.462;2023-03-01T16:25:16;13.10;1.00
12833;DHT22;6483;51.310;4.462;2023-03-01T16:27:43;12.40;1.00
12833;DHT22;6483;51.310;4.462;2023-03-01T16:30:10;12.00;1.00
12833;DHT22;6483;51.310;4.462;2023-03-01T16:32:41;11.90;1.00
12833;DHT22;6483;51.310;4.462;2023-03-01T16:35:12;10.80;1.00
12833;DHT22;6483;51.310;4.462;2023-03-01T16:37:49;10.80;1.00
12833;DHT22;6483;51.310;4.462;2023-03-01T16:40:21;10.10;1.00
12833;DHT22;6483;51.310;4.462;2023-03-01T16:42:55;9.50;1.00
12833;DHT22;6483;51.310;4.462;2023-03-01T16:45:26;9.10;1.00
12833;DHT22;6483;51.310;4.462;2023-03-01T16:47:52;8.80;1.00
12833;DHT22;6483;51.310;4.462;2023-03-01T16:50:18;8.50;1.00
12833;DHT22;6483;51.310;4.462;2023-03-01T16:52:44;8.20;1.00
12833;DHT22;6483;51.310;4.462;2023-03-01T16:55:16;8.00;1.00
12833;DHT22;6483;51.310;4.462;2023-03-01T16:57:49;7.80;1.00
12833;DHT22;6483;51.310;4.462;2023-03-01T17:00:21;7.50;1.00
12833;DHT22;6483;51.310;4.462;2023-03-01T17:02:50;7.20;1.00
12833;DHT22;6483;51.310;4.462;2023-03-01T17:05:18;6.90;1.00
12833;DHT22;6483;51.310;4.462;2023-03-01T17:07:46;6.60;1.00
12833;DHT22;6483;51.310;4.462;2023-03-01T17:10:12;6.30;1.00
12833;DHT22;6483;51.310;4.462;2023-03-01T17:12:38;6.00;1.00
12833;DHT22;6483;51.310;4.462;2023-03-01T17:15:05;5.90;1.00
12833;DHT22;6483;51.310;4.462;2023-03-01T17:17:31;5.60;1.00
12833;DHT22;6483;51.310;4.462;2023-03-01T17:19:57;5.40;1.00
12833;DHT22;6483;51.310;4.462;2023-03-01T17:22:26;5.20;3.00
12833;DHT22;6483;51.310;4.462;2023-03-01T17:24:54;5.00;4.50
12833;DHT22;6483;51.310;4.462;2023-03-01T17:27:23;4.90;5.50
12833;DHT22;6483;51.310;4.462;2023-03-01T17:29:49;4.70;7.80
12833;DHT22;6483;51.310;4.462;2023-03-01T17:32:15;4.60;9.60
12833;DHT22;6483;51.310;4.462;2023-03-01T17:34:40;4.40;10.30
12833;DHT22;6483;51.310;4.462;2023-03-01T17:37:09;4.20;12.40
12833;DHT22;6483;51.310;4.462;2023-03-01T17:39:35;4.10;14.20
12833;DHT22;6483;51.310;4.462;2023-03-01T17:42:05;3.90;15.80
12833;DHT22;6483;51.310;4.462;2023-03-01T17:44:33;3.70;17.80
12833;DHT22;6483;51.310;4.462;2023-03-01T17:47:03;3.50;19.00
12833;DHT22;6483;51.310;4.462;2023-03-01T17:49:30;3.60;21.40
12833;DHT22;6483;51.310;4.462;2023-03-01T17:51:56;3.30;23.20
12833;DHT22;6483;51.310;4.462;2023-03-01T17:54:22;3.20;23.40
12833;DHT22;6483;51.310;4.462;2023-03-01T17:56:48;3.00;25.20
12833;DHT22;6483;51.310;4.462;2023-03-01T17:59:14;2.90;26.60